Time;durP1;ratioP1;P1;durP2;ratioP2;P2;SDS_P1;SDS_P2;PMS_P1;PMS_P2;Temp;Humidity;BMP_temperature;BMP_pressure;BME280_temperature;BME280_humidity;BME280_pressure;Samples;Min_cycle;Max_cycle;Signal;HPM_P1;HPM_P2
2022/03/15 00:00:28;;;;;;;5.85;2.03;;;;;;;;;;5062206;28;20124;-67
2022/03/15 00:02:56;;;;;;;5.70;1.83;;;;;;;;;;5063675;28;20655;-66
2022/03/15 00:05:23;;;;;;;6.85;2.40;;;;;;;;;;5065507;28;20052;-67
2022/03/15 00:07:49;;;;;;;5.03;2.00;;;;;;;;;;5064633;28;20040;-67
2022/03/15 00:10:16;;;;;;;4.75;1.98;;;;;;;;;;5049175;28;20513;-67
2022/03/15 00:12:42;;;;;;;4.85;2.00;;;;;;;;;;5048305;28;20123;-67
2022/03/15 00:15:09;;;;;;;4.78;1.90;;;;;;;;;;5065247;28;20820;-66
2022/03/15 00:17:38;;;;;;;5.95;2.10;;;;;;;;;;5063205;28;20033;-66
2022/03/15 00:20:05;;;;;;;5.72;2.10;;;;;;;;;;5065975;28;20650;-67
2022/03/15 00:22:37;;;;;;;5.82;2.03;;;;;;;;;;5047897;28;20101;-66
2022/03/15 00:25:07;;;;;;;4.88;1.80;;;;;;;;;;5065951;28;20090;-66
2022/03/15 00:27:34;;;;;;;4.68;2.00;;;;;;;;;;5047883;28;20135;-66
2022/03/15 00:30:00;;;;;;;5.07;2.10;;;;;;;;;;5065731;28;20053;-66
2022/03/15 00:32:26;;;;;;;5.70;1.88;;;;;;;;;;5064274;28;20045;-67
2022/03/15 00:34:52;;;;;;;5.82;2.17;;;;;;;;;;5065221;28;20174;-66
2022/03/15 00:37:19;;;;;;;4.65;1.90;;;;;;;;;;5047240;28;20788;-66
2022/03/15 00:39:45;;;;;;;5.13;1.70;;;;;;;;;;5065007;28;20043;-67
2022/03/15 00:42:12;;;;;;;5.45;1.98;;;;;;;;;;5064669;28;20389;-67
2022/03/15 00:44:38;;;;;;;5.68;1.98;;;;;;;;;;5065062;28;20435;-66
2022/03/15 00:47:04;;;;;;;5.72;1.90;;;;;;;;;;5063058;28;20623;-66
2022/03/15 00:49:30;;;;;;;4.75;1.90;;;;;;;;;;5065131;28;20040;-66
2022/03/15 00:51:56;;;;;;;4.28;1.60;;;;;;;;;;5055689;28;20111;-67
2022/03/15 00:54:22;;;;;;;5.38;1.63;;;;;;;;;;5045190;28;20111;-66
2022/03/15 00:56:48;;;;;;;5.22;1.65;;;;;;;;;;5051156;28;20071;-67
2022/03/15 00:59:15;;;;;;;4.72;1.80;;;;;;;;;;5065244;28;20133;-67
2022/03/15 01:01:41;;;;;;;4.90;2.08;;;;;;;;;;5062983;28;20044;-66
2022/03/15 01:04:07;;;;;;;4.60;1.80;;;;;;;;;;5047406;28;20048;-66
2022/03/15 01:06:34;;;;;;;4.53;1.70;;;;;;;;;;5063527;28;20102;-67
2022/03/15 01:09:01;;;;;;;5.90;1.70;;;;;;;;;;5065309;28;20861;-67
2022/03/15 01:11:27;;;;;;;4.82;1.70;;;;;;;;;;5063407;28;20045;-66
2022/03/15 01:13:53;;;;;;;4.63;2.00;;;;;;;;;;5064106;28;20156;-67
2022/03/15 01:16:19;;;;;;;3.70;1.60;;;;;;;;;;5062796;28;20147;-67
2022/03/15 01:18:45;;;;;;;5.82;1.85;;;;;;;;;;5047862;28;20036;-67
2022/03/15 01:21:14;;;;;;;5.10;2.10;;;;;;;;;;5046357;28;20048;-67
2022/03/15 01:23:40;;;;;;;4.85;1.77;;;;;;;;;;5064813;28;20512;-66
2022/03/15 01:26:06;;;;;;;5.28;2.08;;;;;;;;;;5062301;28;20052;-67
2022/03/15 01:28:32;;;;;;;4.30;1.45;;;;;;;;;;5044299;28;20498;-67
2022/03/15 01:30:58;;;;;;;4.60;1.80;;;;;;;;;;5044019;28;20044;-67
2022/03/15 01:33:24;;;;;;;5.22;1.90;;;;;;;;;;5046271;28;20801;-67
2022/03/15 01:35:51;;;;;;;5.05;1.90;;;;;;;;;;5064817;28;20101;-67
2022/03/15 01:38:17;;;;;;;4.63;2.00;;;;;;;;;;5063407;28;20072;-67
2022/03/15 01:40:43;;;;;;;4.60;1.95;;;;;;;;;;5063897;28;20071;-68
2022/03/15 01:43:09;;;;;;;5.28;2.00;;;;;;;;;;5063277;28;20036;-68
2022/03/15 01:45:40;;;;;;;4.45;1.90;;;;;;;;;;5063992;28;20044;-68
2022/03/15 01:48:07;;;;;;;3.78;1.85;;;;;;;;;;5062629;28;20463;-68
2022/03/15 01:50:33;;;;;;;5.30;2.17;;;;;;;;;;5036167;28;20041;-68
2022/03/15 01:52:59;;;;;;;4.32;1.70;;;;;;;;;;5016249;28;20102;-68
2022/03/15 01:55:25;;;;;;;5.40;2.08;;;;;;;;;;5044239;28;20687;-68
2022/03/15 01:57:51;;;;;;;5.97;1.95;;;;;;;;;;5058982;28;20040;-68
2022/03/15 02:00:19;;;;;;;5.28;2.15;;;;;;;;;;5064384;28;20040;-68
2022/03/15 02:02:45;;;;;;;4.60;2.08;;;;;;;;;;5063265;28;20044;-68
2022/03/15 02:05:11;;;;;;;5.85;2.10;;;;;;;;;;5064994;28;20649;-68
2022/03/15 02:07:38;;;;;;;6.38;2.10;;;;;;;;;;5063501;28;20032;-68
2022/03/15 02:10:05;;;;;;;4.38;1.73;;;;;;;;;;5047324;28;20044;-68
2022/03/15 02:12:31;;;;;;;4.82;1.77;;;;;;;;;;5062027;28;20068;-68
2022/03/15 02:15:01;;;;;;;5.13;1.90;;;;;;;;;;5063935;28;20040;-68
2022/03/15 02:17:27;;;;;;;6.18;2.00;;;;;;;;;;5045897;28;20045;-68
2022/03/15 02:19:53;;;;;;;5.15;2.10;;;;;;;;;;5063655;28;20051;-68
2022/03/15 02:22:20;;;;;;;4.95;1.98;;;;;;;;;;5062103;28;20040;-67
2022/03/15 02:24:46;;;;;;;4.00;1.60;;;;;;;;;;5064677;28;20058;-68
2022/03/15 02:27:12;;;;;;;5.18;1.90;;;;;;;;;;5061934;28;20556;-68
2022/03/15 02:29:38;;;;;;;4.40;1.50;;;;;;;;;;5046519;28;20040;-68
2022/03/15 02:32:04;;;;;;;4.63;1.90;;;;;;;;;;5059016;28;20114;-67
2022/03/15 02:34:30;;;;;;;5.85;1.90;;;;;;;;;;5043004;28;20041;-68
2022/03/15 02:36:56;;;;;;;5.22;1.63;;;;;;;;;;5050714;28;20058;-68
2022/03/15 02:39:23;;;;;;;5.85;1.77;;;;;;;;;;5046904;28;20055;-67
2022/03/15 02:41:49;;;;;;;5.15;1.85;;;;;;;;;;5062198;28;20079;-68
2022/03/15 02:44:15;;;;;;;4.32;1.50;;;;;;;;;;5062927;28;20075;-68
2022/03/15 02:46:42;;;;;;;5.30;1.80;;;;;;;;;;5061006;28;20093;-68
2022/03/15 02:49:09;;;;;;;4.03;1.50;;;;;;;;;;5063132;28;20060;-68
2022/03/15 02:51:35;;;;;;;5.13;1.90;;;;;;;;;;5045037;28;20052;-68
2022/03/15 02:54:04;;;;;;;5.10;2.00;;;;;;;;;;5046340;28;20068;-69
2022/03/15 02:56:33;;;;;;;4.88;1.73;;;;;;;;;;5061568;28;20044;-68
2022/03/15 02:58:59;;;;;;;5.53;2.00;;;;;;;;;;5064531;28;20624;-69
2022/03/15 03:01:25;;;;;;;5.05;1.70;;;;;;;;;;5061434;28;20730;-68
2022/03/15 03:03:53;;;;;;;4.80;1.80;;;;;;;;;;5062883;28;20704;-68
2022/03/15 03:06:19;;;;;;;4.90;1.77;;;;;;;;;;5044760;28;20059;-68
2022/03/15 03:08:45;;;;;;;5.25;1.80;;;;;;;;;;5064232;28;20033;-68
2022/03/15 03:11:11;;;;;;;4.30;1.70;;;;;;;;;;5062738;28;20079;-68
2022/03/15 03:13:37;;;;;;;4.90;1.70;;;;;;;;;;5062526;28;20044;-68
2022/03/15 03:16:05;;;;;;;4.78;1.80;;;;;;;;;;5061636;28;20078;-68
2022/03/15 03:18:32;;;;;;;3.90;1.70;;;;;;;;;;5062275;28;20041;-68
2022/03/15 03:20:59;;;;;;;3.78;1.30;;;;;;;;;;5062292;28;20127;-68
2022/03/15 03:23:25;;;;;;;4.40;1.52;;;;;;;;;;5062568;28;20051;-68
2022/03/15 03:25:51;;;;;;;4.72;1.73;;;;;;;;;;5062709;28;20047;-68
2022/03/15 03:28:17;;;;;;;4.97;1.80;;;;;;;;;;5060911;28;20049;-68
2022/03/15 03:30:47;;;;;;;4.88;1.80;;;;;;;;;;5062819;28;20579;-68
2022/03/15 03:33:13;;;;;;;4.93;1.80;;;;;;;;;;5041981;28;20041;-68
2022/03/15 03:35:39;;;;;;;4.45;1.77;;;;;;;;;;5025940;28;20033;-66
2022/03/15 03:38:06;;;;;;;4.63;1.70;;;;;;;;;;5062914;28;20123;-66
2022/03/15 03:40:32;;;;;;;6.55;2.25;;;;;;;;;;5066483;28;20056;-66
2022/03/15 03:42:58;;;;;;;5.65;1.83;;;;;;;;;;5048588;28;20060;-66
2022/03/15 03:45:24;;;;;;;4.80;1.73;;;;;;;;;;5066141;28;20496;-66
2022/03/15 03:47:51;;;;;;;4.68;1.90;;;;;;;;;;5047452;28;20052;-66
2022/03/15 03:50:18;;;;;;;5.10;2.10;;;;;;;;;;5066492;28;20044;-66
2022/03/15 03:52:44;;;;;;;4.13;1.88;;;;;;;;;;5048532;28;20045;-66
2022/03/15 03:55:10;;;;;;;5.65;2.00;;;;;;;;;;5066461;28;20413;-66
2022/03/15 03:57:36;;;;;;;4.70;1.75;;;;;;;;;;5064596;28;20064;-66
2022/03/15 04:00:03;;;;;;;5.05;2.10;;;;;;;;;;5066056;28;20046;-66
2022/03/15 04:02:28;;;;;;;5.40;1.67;;;;;;;;;;5064185;28;20041;-66
2022/03/15 04:04:55;;;;;;;4.57;1.63;;;;;;;;;;5067393;28;20048;-65
2022/03/15 04:07:21;;;;;;;6.18;1.98;;;;;;;;;;5065081;28;20075;-66
2022/03/15 04:09:47;;;;;;;5.32;1.75;;;;;;;;;;5049244;28;20072;-65
2022/03/15 04:12:13;;;;;;;3.85;1.77;;;;;;;;;;5065693;28;20538;-66
2022/03/15 04:14:39;;;;;;;7.80;2.03;;;;;;;;;;5065840;28;20624;-66
2022/03/15 04:17:07;;;;;;;4.78;1.75;;;;;;;;;;5054643;28;20438;-66
2022/03/15 04:19:33;;;;;;;5.00;1.83;;;;;;;;;;5045538;28;20562;-66
2022/03/15 04:21:59;;;;;;;5.10;1.92;;;;;;;;;;5053888;28;20036;-66
2022/03/15 04:24:26;;;;;;;5.10;1.83;;;;;;;;;;5065679;28;20078;-66
2022/03/15 04:26:52;;;;;;;4.70;2.00;;;;;;;;;;5057386;28;20053;-66
2022/03/15 04:29:18;;;;;;;4.30;1.85;;;;;;;;;;5045767;28;20136;-66
2022/03/15 04:31:44;;;;;;;5.32;2.20;;;;;;;;;;5030684;28;20068;-66
2022/03/15 04:34:10;;;;;;;4.75;1.80;;;;;;;;;;5045477;28;20037;-66
2022/03/15 04:36:36;;;;;;;4.82;1.88;;;;;;;;;;5050659;28;20105;-66
2022/03/15 04:39:03;;;;;;;4.35;1.85;;;;;;;;;;5065502;28;20688;-66
2022/03/15 04:41:29;;;;;;;4.40;1.60;;;;;;;;;;5065034;28;20045;-66
2022/03/15 04:43:56;;;;;;;5.43;1.90;;;;;;;;;;5065993;28;20044;-66
2022/03/15 04:46:22;;;;;;;6.22;2.30;;;;;;;;;;5063146;28;20117;-66
2022/03/15 04:48:48;;;;;;;5.00;2.13;;;;;;;;;;5062899;28;20045;-66
2022/03/15 04:51:14;;;;;;;4.93;1.88;;;;;;;;;;5045034;28;20041;-66
2022/03/15 04:53:40;;;;;;;5.30;1.75;;;;;;;;;;5045349;28;20052;-66
2022/03/15 04:56:06;;;;;;;5.00;2.05;;;;;;;;;;5045811;28;20041;-66
2022/03/15 04:58:32;;;;;;;5.70;1.77;;;;;;;;;;5065261;28;20178;-66
2022/03/15 05:00:59;;;;;;;5.20;1.92;;;;;;;;;;5047449;28;20052;-66
2022/03/15 05:03:25;;;;;;;5.55;1.98;;;;;;;;;;5064435;28;20045;-66
2022/03/15 05:05:52;;;;;;;5.60;2.10;;;;;;;;;;5064841;28;20051;-66
2022/03/15 05:08:18;;;;;;;6.68;2.17;;;;;;;;;;5063725;28;20048;-66
2022/03/15 05:13:29;;;;;;;5.22;1.95;;;;;;;;;;5065734;28;20048;-66
2022/03/15 05:15:55;;;;;;;7.47;2.72;;;;;;;;;;5064493;28;20036;-66
2022/03/15 05:18:21;;;;;;;4.78;1.98;;;;;;;;;;5060515;28;20515;-66
2022/03/15 05:20:47;;;;;;;6.90;1.90;;;;;;;;;;5044466;28;20128;-66
2022/03/15 05:23:13;;;;;;;5.15;2.30;;;;;;;;;;5062478;28;20843;-66
2022/03/15 05:25:39;;;;;;;5.82;2.20;;;;;;;;;;5064678;28;20506;-66
2022/03/15 05:28:09;;;;;;;5.60;2.30;;;;;;;;;;5064418;28;20056;-66
2022/03/15 05:30:35;;;;;;;5.15;2.10;;;;;;;;;;5064181;28;20048;-66
2022/03/15 05:33:01;;;;;;;6.32;2.42;;;;;;;;;;5061834;28;20051;-66
2022/03/15 05:35:27;;;;;;;7.40;2.40;;;;;;;;;;5064418;28;20041;-66
2022/03/15 05:37:53;;;;;;;5.45;2.30;;;;;;;;;;5062621;28;20237;-66
2022/03/15 05:40:20;;;;;;;7.65;2.50;;;;;;;;;;5064627;28;20040;-66
2022/03/15 05:42:46;;;;;;;5.43;2.05;;;;;;;;;;5063565;28;20497;-66
2022/03/15 05:45:13;;;;;;;5.45;2.30;;;;;;;;;;5060931;28;20148;-66
2022/03/15 05:47:39;;;;;;;6.65;2.20;;;;;;;;;;5028372;28;20057;-66
2022/03/15 05:50:06;;;;;;;5.40;2.03;;;;;;;;;;5046024;28;20041;-66
2022/03/15 05:52:32;;;;;;;6.32;2.45;;;;;;;;;;5043505;28;20047;-66
2022/03/15 05:54:58;;;;;;;5.65;2.25;;;;;;;;;;5027776;28;20048;-66
2022/03/15 05:57:24;;;;;;;5.68;2.33;;;;;;;;;;5056689;28;20040;-66
2022/03/15 05:59:50;;;;;;;6.25;2.55;;;;;;;;;;5047231;28;20090;-66
2022/03/15 06:02:16;;;;;;;5.28;2.28;;;;;;;;;;5053918;28;20601;-66
2022/03/15 06:04:42;;;;;;;7.07;2.70;;;;;;;;;;5063632;28;20052;-66
2022/03/15 06:07:08;;;;;;;8.50;2.70;;;;;;;;;;5062541;28;20683;-66
2022/03/15 06:09:34;;;;;;;6.25;2.70;;;;;;;;;;5045873;28;20084;-67
2022/03/15 06:12:01;;;;;;;5.75;2.40;;;;;;;;;;5026450;28;20729;-67
2022/03/15 06:14:26;;;;;;;6.85;3.20;;;;;;;;;;5057781;28;20047;-66
2022/03/15 06:16:52;;;;;;;7.15;2.95;;;;;;;;;;5060345;28;20044;-66
2022/03/15 06:19:18;;;;;;;5.72;3.00;;;;;;;;;;5008564;28;20044;-66
2022/03/15 06:21:44;;;;;;;7.75;3.00;;;;;;;;;;5021739;28;20128;-66
2022/03/15 06:24:11;;;;;;;5.20;2.38;;;;;;;;;;5032204;28;20063;-66
2022/03/15 06:26:38;;;;;;;6.85;2.65;;;;;;;;;;5046991;28;20589;-67
2022/03/15 06:29:04;;;;;;;7.03;2.50;;;;;;;;;;5055414;28;20152;-66
2022/03/15 06:31:31;;;;;;;6.13;2.72;;;;;;;;;;5029528;28;20143;-66
2022/03/15 06:33:58;;;;;;;7.85;2.60;;;;;;;;;;5027950;28;20033;-66
2022/03/15 06:36:24;;;;;;;7.00;2.80;;;;;;;;;;5045122;28;20048;-67
2022/03/15 06:38:50;;;;;;;8.50;3.28;;;;;;;;;;5050101;28;20033;-66
2022/03/15 06:41:16;;;;;;;6.07;2.85;;;;;;;;;;5050456;28;20160;-67
2022/03/15 06:43:42;;;;;;;6.43;2.88;;;;;;;;;;5053919;28;20045;-67
2022/03/15 06:46:09;;;;;;;9.30;3.20;;;;;;;;;;5057872;28;20098;-67
2022/03/15 06:48:35;;;;;;;8.35;3.30;;;;;;;;;;5047174;28;20064;-66
2022/03/15 06:51:02;;;;;;;8.45;2.95;;;;;;;;;;5042079;28;20052;-66
2022/03/15 06:53:28;;;;;;;7.35;3.00;;;;;;;;;;5055604;28;20056;-67
2022/03/15 06:55:54;;;;;;;9.25;3.10;;;;;;;;;;5036338;28;20036;-66
2022/03/15 06:58:20;;;;;;;6.07;3.22;;;;;;;;;;5044344;28;20039;-66
2022/03/15 07:00:47;;;;;;;7.70;3.70;;;;;;;;;;5028337;28;20045;-66
2022/03/15 07:03:13;;;;;;;8.57;3.95;;;;;;;;;;5059318;28;20055;-66
2022/03/15 07:05:40;;;;;;;7.60;3.55;;;;;;;;;;5063077;28;20580;-66
2022/03/15 07:08:06;;;;;;;8.07;3.75;;;;;;;;;;5061330;28;20051;-66
2022/03/15 07:10:32;;;;;;;9.30;3.67;;;;;;;;;;5063086;28;20076;-66
2022/03/15 07:12:58;;;;;;;9.40;4.28;;;;;;;;;;5064926;28;20113;-66
2022/03/15 07:15:24;;;;;;;9.98;4.10;;;;;;;;;;5048788;28;21884;-67
2022/03/15 07:17:58;;;;;;;8.40;3.90;;;;;;;;;;5035076;28;20047;-66
2022/03/15 07:20:24;;;;;;;8.85;3.90;;;;;;;;;;5029605;28;20056;-66
2022/03/15 07:22:51;;;;;;;9.00;3.95;;;;;;;;;;5046423;28;20044;-67
2022/03/15 07:25:17;;;;;;;10.27;4.22;;;;;;;;;;5046643;28;20106;-67
2022/03/15 07:27:43;;;;;;;10.23;4.10;;;;;;;;;;5046088;28;20057;-67
2022/03/15 07:30:10;;;;;;;7.95;3.80;;;;;;;;;;5052254;28;20048;-67
2022/03/15 07:32:37;;;;;;;8.43;4.20;;;;;;;;;;5063616;28;20048;-66
2022/03/15 07:35:03;;;;;;;8.85;4.13;;;;;;;;;;5049773;28;20083;-66
2022/03/15 07:37:29;;;;;;;9.77;4.85;;;;;;;;;;5066008;28;20064;-65
2022/03/15 07:39:55;;;;;;;9.43;4.53;;;;;;;;;;5069703;28;20048;-65
2022/03/15 07:42:24;;;;;;;10.27;4.95;;;;;;;;;;5063014;28;20390;-66
2022/03/15 07:44:50;;;;;;;11.57;4.80;;;;;;;;;;5070012;28;20651;-65
2022/03/15 07:47:16;;;;;;;14.18;6.80;;;;;;;;;;5058153;28;20099;-65
2022/03/15 07:49:43;;;;;;;16.35;7.18;;;;;;;;;;5046472;28;20152;-65
2022/03/15 07:52:10;;;;;;;11.70;6.50;;;;;;;;;;5055078;28;20047;-65
2022/03/15 07:54:36;;;;;;;14.82;6.72;;;;;;;;;;5049480;28;20083;-65
2022/03/15 07:57:03;;;;;;;10.57;6.95;;;;;;;;;;5064755;28;20036;-65
2022/03/15 07:59:29;;;;;;;11.90;6.32;;;;;;;;;;5065820;28;20052;-65
2022/03/15 08:01:55;;;;;;;11.15;6.20;;;;;;;;;;5047886;28;20045;-65
2022/03/15 08:04:21;;;;;;;10.98;6.93;;;;;;;;;;5049354;28;20040;-65
2022/03/15 08:06:47;;;;;;;12.55;6.57;;;;;;;;;;5058490;28;20183;-65
2022/03/15 08:09:14;;;;;;;12.10;7.07;;;;;;;;;;5046106;28;20041;-65
2022/03/15 08:11:41;;;;;;;11.38;6.20;;;;;;;;;;5050875;28;20563;-65
2022/03/15 08:14:08;;;;;;;11.23;6.05;;;;;;;;;;5049537;28;20499;-65
2022/03/15 08:16:34;;;;;;;11.55;6.20;;;;;;;;;;5064061;28;20045;-65
2022/03/15 08:19:00;;;;;;;11.40;6.68;;;;;;;;;;5065504;28;20044;-65
2022/03/15 08:21:26;;;;;;;11.90;6.07;;;;;;;;;;5048349;28;20660;-65
2022/03/15 08:23:53;;;;;;;12.02;6.35;;;;;;;;;;5066631;28;20044;-65
2022/03/15 08:26:19;;;;;;;12.32;6.57;;;;;;;;;;5064918;28;20052;-66
2022/03/15 08:28:48;;;;;;;14.95;6.90;;;;;;;;;;5048576;28;20051;-65
2022/03/15 08:31:14;;;;;;;13.43;6.90;;;;;;;;;;5063350;28;20105;-65
2022/03/15 08:33:40;;;;;;;12.52;6.68;;;;;;;;;;5065614;28;20040;-65
2022/03/15 08:36:06;;;;;;;12.73;6.10;;;;;;;;;;5063942;28;20036;-65
2022/03/15 08:38:32;;;;;;;9.52;5.57;;;;;;;;;;5065519;28;20044;-65
2022/03/15 08:40:58;;;;;;;11.10;6.30;;;;;;;;;;5064334;28;20058;-65
2022/03/15 08:43:25;;;;;;;11.80;6.20;;;;;;;;;;5061285;28;20588;-65
2022/03/15 08:45:51;;;;;;;12.07;6.45;;;;;;;;;;5028772;28;20069;-65
2022/03/15 08:48:18;;;;;;;11.13;6.43;;;;;;;;;;5062966;28;20680;-65
2022/03/15 08:50:44;;;;;;;11.77;6.25;;;;;;;;;;5065366;28;20548;-65
2022/03/15 08:53:10;;;;;;;9.23;5.55;;;;;;;;;;5063518;28;20036;-65
2022/03/15 08:55:36;;;;;;;10.10;5.93;;;;;;;;;;5065253;28;20040;-65
2022/03/15 08:58:03;;;;;;;10.05;5.90;;;;;;;;;;5064125;28;20044;-65
2022/03/15 09:00:29;;;;;;;11.35;6.72;;;;;;;;;;5048494;28;20047;-65
2022/03/15 09:02:55;;;;;;;12.68;5.78;;;;;;;;;;5063265;28;20071;-65
2022/03/15 09:05:21;;;;;;;11.25;6.35;;;;;;;;;;5048315;28;20076;-65
2022/03/15 09:07:53;;;;;;;12.25;6.03;;;;;;;;;;5063893;28;20083;-65
2022/03/15 09:10:23;;;;;;;11.35;6.22;;;;;;;;;;5065048;28;20434;-65
2022/03/15 09:12:49;;;;;;;10.48;5.90;;;;;;;;;;5048262;28;20075;-65
2022/03/15 09:15:16;;;;;;;12.35;6.22;;;;;;;;;;5044168;28;20041;-65
2022/03/15 09:17:42;;;;;;;10.43;6.05;;;;;;;;;;5056250;28;20086;-65
2022/03/15 09:20:09;;;;;;;10.25;5.75;;;;;;;;;;5064483;28;20048;-65
2022/03/15 09:22:35;;;;;;;11.13;6.75;;;;;;;;;;5062940;28;20036;-65
2022/03/15 09:25:01;;;;;;;10.02;6.25;;;;;;;;;;5064827;28;20049;-65
2022/03/15 09:27:27;;;;;;;11.52;6.05;;;;;;;;;;5063228;28;20073;-65
2022/03/15 09:29:54;;;;;;;10.43;5.80;;;;;;;;;;5047533;28;20037;-65
2022/03/15 09:32:20;;;;;;;10.27;5.63;;;;;;;;;;5063012;28;20589;-66
2022/03/15 09:34:46;;;;;;;9.93;5.47;;;;;;;;;;5063665;28;20409;-65
2022/03/15 09:37:12;;;;;;;11.80;5.93;;;;;;;;;;5062435;28;20041;-65
2022/03/15 09:39:38;;;;;;;10.95;6.20;;;;;;;;;;5064182;28;20051;-65
2022/03/15 09:42:06;;;;;;;10.40;5.97;;;;;;;;;;5062590;28;20643;-65
2022/03/15 09:44:34;;;;;;;13.02;6.72;;;;;;;;;;5064414;28;20082;-66
2022/03/15 09:47:01;;;;;;;9.30;5.82;;;;;;;;;;5060237;28;20123;-65
2022/03/15 09:49:27;;;;;;;8.75;5.15;;;;;;;;;;5045560;28;20036;-65
2022/03/15 09:51:55;;;;;;;9.20;5.43;;;;;;;;;;5060960;28;20037;-65
2022/03/15 09:54:22;;;;;;;10.32;5.88;;;;;;;;;;5061972;28;20048;-65
2022/03/15 09:56:49;;;;;;;10.10;5.80;;;;;;;;;;5060454;28;20055;-65
2022/03/15 09:59:19;;;;;;;11.13;5.82;;;;;;;;;;5061989;28;20037;-65
2022/03/15 10:01:50;;;;;;;9.57;6.22;;;;;;;;;;5060588;28;20049;-65
2022/03/15 10:04:16;;;;;;;10.77;6.20;;;;;;;;;;5061907;28;20040;-65
2022/03/15 10:06:42;;;;;;;8.35;5.05;;;;;;;;;;5060723;28;20067;-65
2022/03/15 10:09:08;;;;;;;9.77;5.85;;;;;;;;;;5061630;28;20049;-66
2022/03/15 10:11:35;;;;;;;8.75;5.35;;;;;;;;;;5060866;28;20040;-65
2022/03/15 10:14:02;;;;;;;10.48;6.65;;;;;;;;;;5063046;28;20090;-66
2022/03/15 10:16:35;;;;;;;9.77;5.40;;;;;;;;;;5061375;28;20040;-66
2022/03/15 10:19:01;;;;;;;11.23;6.70;;;;;;;;;;5062832;28;20043;-66
2022/03/15 10:21:40;;;;;;;10.43;6.53;;;;;;;;;;5061927;28;20122;-66
2022/03/15 10:24:08;;;;;;;9.43;6.35;;;;;;;;;;5064409;28;20048;-66
2022/03/15 10:26:37;;;;;;;9.38;5.68;;;;;;;;;;5063154;28;20047;-66
2022/03/15 10:29:03;;;;;;;9.63;6.45;;;;;;;;;;5063240;28;20124;-66
2022/03/15 10:31:29;;;;;;;9.90;5.95;;;;;;;;;;5060572;28;20909;-65
2022/03/15 10:34:01;;;;;;;8.52;5.18;;;;;;;;;;5063177;28;20110;-65
2022/03/15 10:36:28;;;;;;;11.18;6.22;;;;;;;;;;5061545;28;20048;-66
2022/03/15 10:38:54;;;;;;;11.35;5.78;;;;;;;;;;5063132;28;20123;-66
2022/03/15 10:41:20;;;;;;;11.18;6.05;;;;;;;;;;5045279;28;20761;-65
2022/03/15 10:43:57;;;;;;;11.35;6.40;;;;;;;;;;5063313;28;20051;-65
2022/03/15 10:46:24;;;;;;;10.95;6.40;;;;;;;;;;5061245;28;20053;-65
2022/03/15 10:49:00;;;;;;;9.55;5.75;;;;;;;;;;5062789;28;20040;-65
2022/03/15 10:51:26;;;;;;;9.63;5.70;;;;;;;;;;5062050;28;20037;-65
2022/03/15 10:54:00;;;;;;;9.63;5.72;;;;;;;;;;5046367;28;20047;-65
2022/03/15 10:56:26;;;;;;;11.88;6.03;;;;;;;;;;5061807;28;20044;-65
2022/03/15 10:58:59;;;;;;;11.65;5.97;;;;;;;;;;5062785;28;20032;-65
2022/03/15 11:01:26;;;;;;;10.25;6.00;;;;;;;;;;5045374;28;20830;-65
2022/03/15 11:03:59;;;;;;;12.13;5.55;;;;;;;;;;5063123;28;20390;-65
2022/03/15 11:06:33;;;;;;;8.55;5.45;;;;;;;;;;5061612;28;20130;-65
2022/03/15 11:09:00;;;;;;;10.77;5.38;;;;;;;;;;5062943;28;20044;-65
2022/03/15 11:11:27;;;;;;;9.45;5.10;;;;;;;;;;5061224;28;20067;-65
2022/03/15 11:14:04;;;;;;;11.82;6.30;;;;;;;;;;5062213;28;20044;-65
2022/03/15 11:16:31;;;;;;;9.93;5.90;;;;;;;;;;5061395;28;20051;-65
2022/03/15 11:19:00;;;;;;;10.10;6.25;;;;;;;;;;5061804;28;20086;-65
2022/03/15 11:21:26;;;;;;;8.57;5.22;;;;;;;;;;5061205;28;20123;-65
2022/03/15 11:23:54;;;;;;;10.35;5.93;;;;;;;;;;5062781;28;20040;-65
2022/03/15 11:26:22;;;;;;;11.05;6.22;;;;;;;;;;5060305;28;20041;-65
2022/03/15 11:28:48;;;;;;;10.82;6.32;;;;;;;;;;5061917;28;20087;-65
2022/03/15 11:31:16;;;;;;;11.38;6.13;;;;;;;;;;5061062;28;20078;-65
2022/03/15 11:33:47;;;;;;;10.35;6.18;;;;;;;;;;5046039;28;20036;-65
2022/03/15 11:36:13;;;;;;;10.82;6.40;;;;;;;;;;5045134;28;20036;-65
2022/03/15 11:38:41;;;;;;;10.50;6.38;;;;;;;;;;5062654;28;20037;-67
2022/03/15 11:41:10;;;;;;;9.70;6.63;;;;;;;;;;5044075;28;20044;-67
2022/03/15 11:44:03;;;;;;;11.57;5.97;;;;;;;;;;5061980;28;20051;-67
2022/03/15 11:46:29;;;;;;;9.63;5.80;;;;;;;;;;5057982;28;20063;-67
2022/03/15 11:49:11;;;;;;;9.93;6.22;;;;;;;;;;5063075;28;20501;-67
2022/03/15 11:51:56;;;;;;;10.68;6.18;;;;;;;;;;5061305;28;20179;-67
2022/03/15 11:54:31;;;;;;;11.85;6.40;;;;;;;;;;5062404;28;20128;-67
2022/03/15 11:56:59;;;;;;;9.43;6.05;;;;;;;;;;5060907;28;20044;-66
2022/03/15 11:59:25;;;;;;;9.77;6.20;;;;;;;;;;5049592;28;20444;-67
2022/03/15 12:01:53;;;;;;;9.98;6.13;;;;;;;;;;5064348;28;20711;-66
2022/03/15 12:04:23;;;;;;;8.18;5.22;;;;;;;;;;5066034;28;20094;-66
2022/03/15 12:07:01;;;;;;;9.02;5.63;;;;;;;;;;5064739;28;20048;-66
2022/03/15 12:09:31;;;;;;;8.05;5.20;;;;;;;;;;5065968;28;20064;-66
2022/03/15 12:12:01;;;;;;;9.40;5.60;;;;;;;;;;5064049;28;20048;-66
2022/03/15 12:14:39;;;;;;;9.27;6.10;;;;;;;;;;5067049;28;20587;-66
2022/03/15 12:17:05;;;;;;;11.93;6.53;;;;;;;;;;5063212;28;20124;-66
2022/03/15 12:19:40;;;;;;;7.72;5.00;;;;;;;;;;5066235;28;20537;-66
2022/03/15 12:22:09;;;;;;;8.65;5.10;;;;;;;;;;5065452;28;20048;-66
2022/03/15 12:24:39;;;;;;;10.85;5.60;;;;;;;;;;5065369;28;20037;-66
2022/03/15 12:27:09;;;;;;;10.15;5.30;;;;;;;;;;5064584;28;20053;-66
2022/03/15 12:29:38;;;;;;;7.65;4.63;;;;;;;;;;5065650;28;20048;-66
2022/03/15 12:32:14;;;;;;;8.20;4.80;;;;;;;;;;5064996;28;20082;-67
2022/03/15 12:34:42;;;;;;;7.28;4.50;;;;;;;;;;5048448;28;20638;-66
2022/03/15 12:37:08;;;;;;;9.18;4.40;;;;;;;;;;5063633;28;20044;-66
2022/03/15 12:39:35;;;;;;;7.03;4.57;;;;;;;;;;5065858;28;20695;-66
2022/03/15 12:42:06;;;;;;;7.65;4.53;;;;;;;;;;5063743;28;20131;-66
2022/03/15 12:44:43;;;;;;;7.53;4.40;;;;;;;;;;5065411;28;20036;-66
2022/03/15 12:47:09;;;;;;;8.88;5.30;;;;;;;;;;5063327;28;20036;-66
2022/03/15 12:49:36;;;;;;;8.80;4.30;;;;;;;;;;5065281;28;20047;-66
2022/03/15 12:52:12;;;;;;;6.57;4.07;;;;;;;;;;5063768;28;20106;-66
2022/03/15 12:54:39;;;;;;;7.72;4.43;;;;;;;;;;5065418;28;20076;-66
2022/03/15 12:57:10;;;;;;;7.25;4.05;;;;;;;;;;5063829;28;20404;-66
2022/03/15 12:59:36;;;;;;;7.20;4.25;;;;;;;;;;5065301;28;20045;-66
2022/03/15 13:02:04;;;;;;;8.95;4.00;;;;;;;;;;5064820;28;20533;-66
2022/03/15 13:04:32;;;;;;;9.20;4.18;;;;;;;;;;5065196;28;20087;-66
2022/03/15 13:07:04;;;;;;;7.82;4.50;;;;;;;;;;5063870;28;20048;-66
2022/03/15 13:09:30;;;;;;;7.28;4.20;;;;;;;;;;5063838;28;20044;-66
2022/03/15 13:11:56;;;;;;;7.65;4.07;;;;;;;;;;5047023;28;20044;-66
2022/03/15 13:14:27;;;;;;;7.43;3.97;;;;;;;;;;5064787;28;20045;-66
2022/03/15 13:16:53;;;;;;;7.68;4.07;;;;;;;;;;5045594;28;20063;-66
2022/03/15 13:19:26;;;;;;;6.70;3.70;;;;;;;;;;5064598;28;20086;-66
2022/03/15 13:21:52;;;;;;;6.88;4.10;;;;;;;;;;5046346;28;20166;-66
2022/03/15 13:24:23;;;;;;;7.13;3.80;;;;;;;;;;5064632;28;20047;-67
2022/03/15 13:26:50;;;;;;;7.13;3.55;;;;;;;;;;5062905;28;20109;-66
2022/03/15 13:29:17;;;;;;;7.38;4.03;;;;;;;;;;5064555;28;20044;-66
2022/03/15 13:31:43;;;;;;;7.13;3.53;;;;;;;;;;5062522;28;20132;-66
2022/03/15 13:34:13;;;;;;;10.02;3.97;;;;;;;;;;5063725;28;20660;-66
2022/03/15 13:36:40;;;;;;;7.18;3.40;;;;;;;;;;5058017;28;20037;-66
2022/03/15 13:39:07;;;;;;;7.47;3.85;;;;;;;;;;5028585;28;20705;-66
2022/03/15 13:41:41;;;;;;;7.03;3.83;;;;;;;;;;5049287;28;20048;-66
2022/03/15 13:44:07;;;;;;;;;;;;;;;;;;5043717;28;20041;-66
2022/03/15 13:46:34;;;;;;;6.88;3.47;;;;;;;;;;5046271;28;20003;-66
2022/03/15 13:49:00;;;;;;;132.60;14.80;;;;;;;;;;5044847;28;20470;-66
2022/03/15 13:51:32;;;;;;;90.50;12.05;;;;;;;;;;5043514;28;20055;-66
2022/03/15 13:54:24;;;;;;;68.70;11.27;;;;;;;;;;5045420;28;20087;-65
2022/03/15 13:56:52;;;;;;;46.67;9.55;;;;;;;;;;5051979;28;20048;-65
2022/03/15 13:59:23;;;;;;;33.60;8.98;;;;;;;;;;5067432;28;20052;-65
2022/03/15 14:01:57;;;;;;;33.65;9.18;;;;;;;;;;5064390;28;20517;-65
2022/03/15 14:04:23;;;;;;;;;;;;;;;;;;5043093;28;20075;-65
2022/03/15 14:06:49;;;;;;;19.08;8.82;;;;;;;;;;5033015;28;20042;-65
2022/03/15 14:09:24;;;;;;;24.90;8.95;;;;;;;;;;5028383;28;20632;-65
2022/03/15 14:12:01;;;;;;;14.20;7.03;;;;;;;;;;5041589;28;20037;-65
2022/03/15 14:14:27;;;;;;;19.13;7.50;;;;;;;;;;5045511;28;20033;-65
2022/03/15 14:16:56;;;;;;;14.50;6.70;;;;;;;;;;5044243;28;20036;-65
2022/03/15 14:19:22;;;;;;;12.32;6.45;;;;;;;;;;5032087;28;20052;-65
2022/03/15 14:21:52;;;;;;;15.10;6.05;;;;;;;;;;5046952;28;20045;-67
2022/03/15 14:24:23;;;;;;;14.57;5.72;;;;;;;;;;5062026;28;20048;-66
2022/03/15 14:26:51;;;;;;;13.18;6.30;;;;;;;;;;5046267;28;20544;-69
2022/03/15 14:29:20;;;;;;;19.75;6.68;;;;;;;;;;5045049;28;20099;-66
2022/03/15 14:31:56;;;;;;;17.88;7.00;;;;;;;;;;5037815;28;20128;-66
2022/03/15 14:34:23;;;;;;;21.00;7.22;;;;;;;;;;5042534;28;20045;-66
2022/03/15 14:36:49;;;;;;;17.42;7.60;;;;;;;;;;5044702;28;20060;-66
2022/03/15 14:39:17;;;;;;;19.25;7.80;;;;;;;;;;5042640;28;20037;-66
2022/03/15 14:41:45;;;;;;;13.75;6.90;;;;;;;;;;5045515;28;20045;-66
2022/03/15 14:44:12;;;;;;;14.75;6.60;;;;;;;;;;5050516;28;20090;-66